sensor_id;sensor_type;location;lat;lon;timestamp;P1;durP1;ratioP1;P2;durP2;ratioP2
11548;SDS011;61444;59.472;18.306;2022-08-21T00:01:58;4.90;;;2.30;;
11548;SDS011;61444;59.472;18.306;2022-08-21T00:04:07;3.90;;;2.37;;
11548;SDS011;61444;59.472;18.306;2022-08-21T00:06:21;5.03;;;2.23;;
11548;SDS011;61444;59.472;18.306;2022-08-21T00:08:33;5.37;;;2.43;;
11548;SDS011;61444;59.472;18.306;2022-08-21T00:10:43;5.10;;;2.27;;
11548;SDS011;61444;59.472;18.306;2022-08-21T00:12:52;3.83;;;2.67;;
11548;SDS011;61444;59.472;18.306;2022-08-21T00:15:05;3.97;;;2.17;;
11548;SDS011;61444;59.472;18.306;2022-08-21T00:17:21;4.67;;;2.40;;
11548;SDS011;61444;59.472;18.306;2022-08-21T00:19:33;3.77;;;2.10;;
11548;SDS011;61444;59.472;18.306;2022-08-21T00:21:43;5.93;;;2.50;;
11548;SDS011;61444;59.472;18.306;2022-08-21T00:23:55;4.17;;;2.47;;
11548;SDS011;61444;59.472;18.306;2022-08-21T00:26:04;5.30;;;2.40;;
11548;SDS011;61444;59.472;18.306;2022-08-21T00:28:15;6.93;;;2.83;;
11548;SDS011;61444;59.472;18.306;2022-08-21T00:30:27;5.33;;;2.57;;
11548;SDS011;61444;59.472;18.306;2022-08-21T00:32:36;4.73;;;2.20;;
11548;SDS011;61444;59.472;18.306;2022-08-21T00:34:45;3.13;;;2.33;;
11548;SDS011;61444;59.472;18.306;2022-08-21T00:36:56;7.60;;;2.90;;
11548;SDS011;61444;59.472;18.306;2022-08-21T00:39:07;6.13;;;2.93;;
11548;SDS011;61444;59.472;18.306;2022-08-21T00:41:16;7.40;;;2.90;;
11548;SDS011;61444;59.472;18.306;2022-08-21T00:43:44;7.13;;;2.80;;
11548;SDS011;61444;59.472;18.306;2022-08-21T00:45:52;5.63;;;2.47;;
11548;SDS011;61444;59.472;18.306;2022-08-21T00:48:01;4.70;;;2.60;;
11548;SDS011;61444;59.472;18.306;2022-08-21T00:50:11;2.20;;;2.00;;
11548;SDS011;61444;59.472;18.306;2022-08-21T00:52:30;3.47;;;2.30;;
11548;SDS011;61444;59.472;18.306;2022-08-21T00:54:40;2.70;;;2.17;;
11548;SDS011;61444;59.472;18.306;2022-08-21T00:56:54;5.53;;;2.63;;
11548;SDS011;61444;59.472;18.306;2022-08-21T00:59:06;3.93;;;2.60;;
11548;SDS011;61444;59.472;18.306;2022-08-21T01:01:17;9.60;;;2.30;;
11548;SDS011;61444;59.472;18.306;2022-08-21T01:03:26;6.33;;;2.73;;
11548;SDS011;61444;59.472;18.306;2022-08-21T01:05:34;6.17;;;2.40;;
11548;SDS011;61444;59.472;18.306;2022-08-21T01:07:44;4.80;;;2.77;;
11548;SDS011;61444;59.472;18.306;2022-08-21T01:09:53;6.33;;;2.73;;
11548;SDS011;61444;59.472;18.306;2022-08-21T01:12:02;3.03;;;2.60;;
11548;SDS011;61444;59.472;18.306;2022-08-21T01:14:11;5.83;;;2.50;;
11548;SDS011;61444;59.472;18.306;2022-08-21T01:16:20;4.70;;;2.57;;
11548;SDS011;61444;59.472;18.306;2022-08-21T01:18:29;5.63;;;2.70;;
11548;SDS011;61444;59.472;18.306;2022-08-21T01:20:39;3.87;;;2.90;;
11548;SDS011;61444;59.472;18.306;2022-08-21T01:22:52;7.53;;;2.70;;
11548;SDS011;61444;59.472;18.306;2022-08-21T01:25:01;5.63;;;2.50;;
11548;SDS011;61444;59.472;18.306;2022-08-21T01:27:10;5.43;;;2.70;;
11548;SDS011;61444;59.472;18.306;2022-08-21T01:29:22;5.20;;;2.63;;
11548;SDS011;61444;59.472;18.306;2022-08-21T01:31:31;7.60;;;2.50;;
11548;SDS011;61444;59.472;18.306;2022-08-21T01:33:40;6.27;;;2.53;;
11548;SDS011;61444;59.472;18.306;2022-08-21T01:35:49;3.03;;;2.50;;
11548;SDS011;61444;59.472;18.306;2022-08-21T01:37:59;4.50;;;2.50;;
11548;SDS011;61444;59.472;18.306;2022-08-21T01:40:08;5.43;;;2.40;;
11548;SDS011;61444;59.472;18.306;2022-08-21T01:42:18;2.73;;;2.33;;
11548;SDS011;61444;59.472;18.306;2022-08-21T01:44:26;6.90;;;2.47;;
11548;SDS011;61444;59.472;18.306;2022-08-21T01:46:35;4.40;;;2.47;;
11548;SDS011;61444;59.472;18.306;2022-08-21T01:48:44;3.87;;;2.37;;
11548;SDS011;61444;59.472;18.306;2022-08-21T01:50:53;7.73;;;2.60;;
11548;SDS011;61444;59.472;18.306;2022-08-21T01:53:03;5.43;;;2.47;;
11548;SDS011;61444;59.472;18.306;2022-08-21T01:55:13;5.23;;;2.40;;
11548;SDS011;61444;59.472;18.306;2022-08-21T01:57:22;4.43;;;2.30;;
11548;SDS011;61444;59.472;18.306;2022-08-21T01:59:31;5.90;;;2.53;;
11548;SDS011;61444;59.472;18.306;2022-08-21T02:01:40;4.07;;;2.50;;
11548;SDS011;61444;59.472;18.306;2022-08-21T02:03:49;4.37;;;3.13;;
11548;SDS011;61444;59.472;18.306;2022-08-21T02:05:57;4.60;;;2.37;;
11548;SDS011;61444;59.472;18.306;2022-08-21T02:08:07;4.63;;;2.77;;
11548;SDS011;61444;59.472;18.306;2022-08-21T02:10:18;5.33;;;2.60;;
11548;SDS011;61444;59.472;18.306;2022-08-21T02:12:28;4.63;;;2.30;;
11548;SDS011;61444;59.472;18.306;2022-08-21T02:14:37;5.33;;;2.50;;
11548;SDS011;61444;59.472;18.306;2022-08-21T02:16:45;4.27;;;2.50;;
11548;SDS011;61444;59.472;18.306;2022-08-21T02:18:54;5.87;;;3.00;;
11548;SDS011;61444;59.472;18.306;2022-08-21T02:21:03;7.20;;;2.70;;
11548;SDS011;61444;59.472;18.306;2022-08-21T02:23:14;3.10;;;2.10;;
11548;SDS011;61444;59.472;18.306;2022-08-21T02:25:32;6.60;;;2.17;;
11548;SDS011;61444;59.472;18.306;2022-08-21T02:27:42;4.43;;;2.23;;
11548;SDS011;61444;59.472;18.306;2022-08-21T02:29:50;4.37;;;2.30;;
11548;SDS011;61444;59.472;18.306;2022-08-21T02:31:59;5.50;;;2.40;;
11548;SDS011;61444;59.472;18.306;2022-08-21T02:34:08;5.40;;;2.50;;
11548;SDS011;61444;59.472;18.306;2022-08-21T02:36:17;4.23;;;2.50;;
11548;SDS011;61444;59.472;18.306;2022-08-21T02:38:28;6.10;;;2.37;;
11548;SDS011;61444;59.472;18.306;2022-08-21T02:40:39;5.40;;;2.10;;
11548;SDS011;61444;59.472;18.306;2022-08-21T02:42:53;4.80;;;2.23;;
11548;SDS011;61444;59.472;18.306;2022-08-21T02:45:07;6.13;;;2.50;;
11548;SDS011;61444;59.472;18.306;2022-08-21T02:47:15;5.37;;;2.43;;
11548;SDS011;61444;59.472;18.306;2022-08-21T02:49:24;5.73;;;2.30;;
11548;SDS011;61444;59.472;18.306;2022-08-21T02:51:32;5.23;;;2.60;;
11548;SDS011;61444;59.472;18.306;2022-08-21T02:53:43;8.07;;;2.60;;
11548;SDS011;61444;59.472;18.306;2022-08-21T02:55:52;6.07;;;2.50;;
11548;SDS011;61444;59.472;18.306;2022-08-21T02:58:01;4.10;;;2.27;;
11548;SDS011;61444;59.472;18.306;2022-08-21T03:00:10;5.37;;;2.43;;
11548;SDS011;61444;59.472;18.306;2022-08-21T03:02:20;7.63;;;2.47;;
11548;SDS011;61444;59.472;18.306;2022-08-21T03:04:32;5.87;;;2.20;;
11548;SDS011;61444;59.472;18.306;2022-08-21T03:06:40;4.83;;;2.20;;
11548;SDS011;61444;59.472;18.306;2022-08-21T03:08:50;3.87;;;2.50;;
11548;SDS011;61444;59.472;18.306;2022-08-21T03:10:59;4.70;;;2.83;;
11548;SDS011;61444;59.472;18.306;2022-08-21T03:13:07;7.13;;;2.70;;
11548;SDS011;61444;59.472;18.306;2022-08-21T03:15:17;5.63;;;2.90;;
11548;SDS011;61444;59.472;18.306;2022-08-21T03:17:26;4.83;;;2.87;;
11548;SDS011;61444;59.472;18.306;2022-08-21T03:19:35;6.53;;;2.70;;
11548;SDS011;61444;59.472;18.306;2022-08-21T03:21:44;4.63;;;2.67;;
11548;SDS011;61444;59.472;18.306;2022-08-21T03:23:54;5.13;;;2.60;;
11548;SDS011;61444;59.472;18.306;2022-08-21T03:26:03;8.37;;;2.83;;
11548;SDS011;61444;59.472;18.306;2022-08-21T03:28:14;4.73;;;2.70;;
11548;SDS011;61444;59.472;18.306;2022-08-21T03:30:23;7.73;;;2.90;;
11548;SDS011;61444;59.472;18.306;2022-08-21T03:32:32;6.17;;;2.80;;
11548;SDS011;61444;59.472;18.306;2022-08-21T03:34:41;3.97;;;2.80;;
11548;SDS011;61444;59.472;18.306;2022-08-21T03:36:50;3.83;;;2.57;;
11548;SDS011;61444;59.472;18.306;2022-08-21T03:39:00;5.40;;;2.90;;
11548;SDS011;61444;59.472;18.306;2022-08-21T03:41:08;7.30;;;2.60;;
11548;SDS011;61444;59.472;18.306;2022-08-21T03:43:17;6.50;;;2.40;;
11548;SDS011;61444;59.472;18.306;2022-08-21T03:45:25;5.40;;;2.30;;
11548;SDS011;61444;59.472;18.306;2022-08-21T03:47:35;5.07;;;2.20;;
11548;SDS011;61444;59.472;18.306;2022-08-21T03:49:43;7.07;;;2.57;;
11548;SDS011;61444;59.472;18.306;2022-08-21T03:51:52;6.07;;;2.30;;
11548;SDS011;61444;59.472;18.306;2022-08-21T03:54:06;5.77;;;2.50;;
11548;SDS011;61444;59.472;18.306;2022-08-21T03:56:15;4.27;;;2.40;;
11548;SDS011;61444;59.472;18.306;2022-08-21T03:58:24;7.17;;;2.80;;
11548;SDS011;61444;59.472;18.306;2022-08-21T04:00:34;5.00;;;2.50;;
11548;SDS011;61444;59.472;18.306;2022-08-21T04:02:43;6.27;;;2.43;;
11548;SDS011;61444;59.472;18.306;2022-08-21T04:04:52;5.20;;;2.17;;
11548;SDS011;61444;59.472;18.306;2022-08-21T04:07:01;4.97;;;2.30;;
11548;SDS011;61444;59.472;18.306;2022-08-21T04:09:11;3.87;;;2.40;;
11548;SDS011;61444;59.472;18.306;2022-08-21T04:11:19;5.20;;;2.20;;
11548;SDS011;61444;59.472;18.306;2022-08-21T04:13:28;10.03;;;2.87;;
11548;SDS011;61444;59.472;18.306;2022-08-21T04:15:36;6.87;;;3.00;;
11548;SDS011;61444;59.472;18.306;2022-08-21T04:17:45;6.10;;;2.87;;
11548;SDS011;61444;59.472;18.306;2022-08-21T04:19:54;6.20;;;2.50;;
11548;SDS011;61444;59.472;18.306;2022-08-21T04:22:03;5.57;;;2.53;;
11548;SDS011;61444;59.472;18.306;2022-08-21T04:24:13;4.03;;;2.67;;
11548;SDS011;61444;59.472;18.306;2022-08-21T04:26:21;4.17;;;2.40;;
11548;SDS011;61444;59.472;18.306;2022-08-21T04:28:30;6.07;;;2.70;;
11548;SDS011;61444;59.472;18.306;2022-08-21T04:30:38;6.93;;;2.80;;
11548;SDS011;61444;59.472;18.306;2022-08-21T04:32:47;5.20;;;2.70;;
11548;SDS011;61444;59.472;18.306;2022-08-21T04:34:58;4.20;;;2.80;;
11548;SDS011;61444;59.472;18.306;2022-08-21T04:37:07;7.20;;;3.20;;
11548;SDS011;61444;59.472;18.306;2022-08-21T04:39:17;12.23;;;3.00;;
11548;SDS011;61444;59.472;18.306;2022-08-21T04:41:30;6.37;;;2.70;;
11548;SDS011;61444;59.472;18.306;2022-08-21T04:43:41;8.77;;;3.40;;
11548;SDS011;61444;59.472;18.306;2022-08-21T04:45:50;13.27;;;2.83;;
11548;SDS011;61444;59.472;18.306;2022-08-21T04:47:59;5.50;;;3.30;;
11548;SDS011;61444;59.472;18.306;2022-08-21T04:50:08;4.10;;;3.07;;
11548;SDS011;61444;59.472;18.306;2022-08-21T04:52:17;6.77;;;3.00;;
11548;SDS011;61444;59.472;18.306;2022-08-21T04:54:28;4.73;;;3.20;;
11548;SDS011;61444;59.472;18.306;2022-08-21T04:56:39;8.40;;;2.97;;
11548;SDS011;61444;59.472;18.306;2022-08-21T04:58:48;3.97;;;2.57;;
11548;SDS011;61444;59.472;18.306;2022-08-21T05:00:57;7.33;;;3.07;;
11548;SDS011;61444;59.472;18.306;2022-08-21T05:03:06;5.70;;;3.33;;
11548;SDS011;61444;59.472;18.306;2022-08-21T05:05:15;5.23;;;3.33;;
11548;SDS011;61444;59.472;18.306;2022-08-21T05:07:25;5.63;;;3.60;;
11548;SDS011;61444;59.472;18.306;2022-08-21T05:09:49;5.37;;;3.50;;
11548;SDS011;61444;59.472;18.306;2022-08-21T05:11:58;6.17;;;3.10;;
11548;SDS011;61444;59.472;18.306;2022-08-21T05:14:08;6.67;;;3.67;;
11548;SDS011;61444;59.472;18.306;2022-08-21T05:16:17;5.53;;;3.93;;
11548;SDS011;61444;59.472;18.306;2022-08-21T05:18:42;7.13;;;3.63;;
11548;SDS011;61444;59.472;18.306;2022-08-21T05:20:51;6.63;;;3.80;;
11548;SDS011;61444;59.472;18.306;2022-08-21T05:23:00;11.80;;;3.50;;
11548;SDS011;61444;59.472;18.306;2022-08-21T05:25:10;5.53;;;3.50;;
11548;SDS011;61444;59.472;18.306;2022-08-21T05:27:18;9.67;;;3.47;;
11548;SDS011;61444;59.472;18.306;2022-08-21T05:29:28;8.67;;;3.37;;
11548;SDS011;61444;59.472;18.306;2022-08-21T05:31:37;6.43;;;3.10;;
11548;SDS011;61444;59.472;18.306;2022-08-21T05:33:46;8.50;;;3.47;;
11548;SDS011;61444;59.472;18.306;2022-08-21T05:35:57;12.87;;;3.40;;
11548;SDS011;61444;59.472;18.306;2022-08-21T05:38:05;6.87;;;3.57;;
11548;SDS011;61444;59.472;18.306;2022-08-21T05:40:25;6.03;;;3.37;;
11548;SDS011;61444;59.472;18.306;2022-08-21T05:42:34;5.53;;;3.43;;
11548;SDS011;61444;59.472;18.306;2022-08-21T05:44:42;7.63;;;3.67;;
11548;SDS011;61444;59.472;18.306;2022-08-21T05:46:54;7.83;;;3.37;;
11548;SDS011;61444;59.472;18.306;2022-08-21T05:49:02;7.17;;;3.37;;
11548;SDS011;61444;59.472;18.306;2022-08-21T05:51:13;6.23;;;3.40;;
11548;SDS011;61444;59.472;18.306;2022-08-21T05:53:23;6.57;;;3.60;;
11548;SDS011;61444;59.472;18.306;2022-08-21T05:55:33;6.60;;;3.63;;
11548;SDS011;61444;59.472;18.306;2022-08-21T05:57:50;8.93;;;3.73;;
11548;SDS011;61444;59.472;18.306;2022-08-21T05:59:59;9.23;;;3.53;;
11548;SDS011;61444;59.472;18.306;2022-08-21T06:02:07;8.17;;;3.80;;
11548;SDS011;61444;59.472;18.306;2022-08-21T06:04:17;11.57;;;3.63;;
11548;SDS011;61444;59.472;18.306;2022-08-21T06:06:25;8.50;;;3.80;;
11548;SDS011;61444;59.472;18.306;2022-08-21T06:08:34;6.97;;;3.50;;
11548;SDS011;61444;59.472;18.306;2022-08-21T06:10:44;6.63;;;3.70;;
11548;SDS011;61444;59.472;18.306;2022-08-21T06:12:53;7.40;;;3.40;;
11548;SDS011;61444;59.472;18.306;2022-08-21T06:15:02;8.23;;;3.70;;
11548;SDS011;61444;59.472;18.306;2022-08-21T06:17:11;7.17;;;3.20;;
11548;SDS011;61444;59.472;18.306;2022-08-21T06:19:21;10.30;;;3.33;;
11548;SDS011;61444;59.472;18.306;2022-08-21T06:21:29;10.33;;;3.30;;
11548;SDS011;61444;59.472;18.306;2022-08-21T06:23:40;5.47;;;3.03;;
11548;SDS011;61444;59.472;18.306;2022-08-21T06:25:50;8.73;;;3.27;;
11548;SDS011;61444;59.472;18.306;2022-08-21T06:28:02;8.10;;;3.20;;
11548;SDS011;61444;59.472;18.306;2022-08-21T06:30:11;8.07;;;2.90;;
11548;SDS011;61444;59.472;18.306;2022-08-21T06:32:20;9.60;;;3.10;;
11548;SDS011;61444;59.472;18.306;2022-08-21T06:34:28;6.10;;;3.20;;
11548;SDS011;61444;59.472;18.306;2022-08-21T06:36:37;8.13;;;3.43;;
11548;SDS011;61444;59.472;18.306;2022-08-21T06:38:45;7.90;;;3.10;;
11548;SDS011;61444;59.472;18.306;2022-08-21T06:40:58;8.37;;;3.50;;
11548;SDS011;61444;59.472;18.306;2022-08-21T06:43:10;6.53;;;3.70;;
11548;SDS011;61444;59.472;18.306;2022-08-21T06:45:20;8.30;;;3.07;;
11548;SDS011;61444;59.472;18.306;2022-08-21T06:47:29;11.90;;;3.60;;
11548;SDS011;61444;59.472;18.306;2022-08-21T06:49:38;8.10;;;3.33;;
11548;SDS011;61444;59.472;18.306;2022-08-21T06:51:46;10.73;;;3.50;;
11548;SDS011;61444;59.472;18.306;2022-08-21T06:53:58;7.13;;;3.57;;
11548;SDS011;61444;59.472;18.306;2022-08-21T06:56:08;8.20;;;3.40;;
11548;SDS011;61444;59.472;18.306;2022-08-21T06:58:16;7.83;;;3.00;;
11548;SDS011;61444;59.472;18.306;2022-08-21T07:00:26;6.20;;;3.03;;
11548;SDS011;61444;59.472;18.306;2022-08-21T07:02:34;8.50;;;3.17;;
11548;SDS011;61444;59.472;18.306;2022-08-21T07:04:46;8.03;;;2.90;;
11548;SDS011;61444;59.472;18.306;2022-08-21T07:06:55;8.40;;;3.17;;
11548;SDS011;61444;59.472;18.306;2022-08-21T07:09:03;6.73;;;2.83;;
11548;SDS011;61444;59.472;18.306;2022-08-21T07:11:14;7.33;;;3.53;;
11548;SDS011;61444;59.472;18.306;2022-08-21T07:13:25;9.40;;;3.80;;
11548;SDS011;61444;59.472;18.306;2022-08-21T07:15:33;8.17;;;3.17;;
11548;SDS011;61444;59.472;18.306;2022-08-21T07:17:42;7.40;;;3.10;;
11548;SDS011;61444;59.472;18.306;2022-08-21T07:19:50;9.50;;;3.30;;
11548;SDS011;61444;59.472;18.306;2022-08-21T07:22:00;6.80;;;3.27;;
11548;SDS011;61444;59.472;18.306;2022-08-21T07:24:09;7.10;;;3.33;;
11548;SDS011;61444;59.472;18.306;2022-08-21T07:26:20;5.70;;;2.93;;
11548;SDS011;61444;59.472;18.306;2022-08-21T07:28:29;6.97;;;3.07;;
11548;SDS011;61444;59.472;18.306;2022-08-21T07:30:37;10.73;;;3.60;;
11548;SDS011;61444;59.472;18.306;2022-08-21T07:32:46;7.57;;;3.30;;
11548;SDS011;61444;59.472;18.306;2022-08-21T07:34:56;6.63;;;2.60;;
11548;SDS011;61444;59.472;18.306;2022-08-21T07:37:04;9.57;;;3.53;;
11548;SDS011;61444;59.472;18.306;2022-08-21T07:39:15;10.20;;;3.40;;
11548;SDS011;61444;59.472;18.306;2022-08-21T07:41:26;8.77;;;3.30;;
11548;SDS011;61444;59.472;18.306;2022-08-21T07:43:36;6.77;;;3.10;;
11548;SDS011;61444;59.472;18.306;2022-08-21T07:45:51;6.10;;;2.63;;
11548;SDS011;61444;59.472;18.306;2022-08-21T07:48:01;10.57;;;3.50;;
11548;SDS011;61444;59.472;18.306;2022-08-21T07:50:10;7.50;;;2.67;;
11548;SDS011;61444;59.472;18.306;2022-08-21T07:52:19;8.60;;;3.03;;
11548;SDS011;61444;59.472;18.306;2022-08-21T07:54:27;7.60;;;3.30;;
11548;SDS011;61444;59.472;18.306;2022-08-21T07:56:41;7.97;;;2.90;;
11548;SDS011;61444;59.472;18.306;2022-08-21T07:58:49;7.70;;;2.90;;
11548;SDS011;61444;59.472;18.306;2022-08-21T08:00:58;8.67;;;3.17;;
11548;SDS011;61444;59.472;18.306;2022-08-21T08:03:06;8.53;;;3.30;;
11548;SDS011;61444;59.472;18.306;2022-08-21T08:05:16;6.40;;;3.27;;
11548;SDS011;61444;59.472;18.306;2022-08-21T08:07:25;7.47;;;2.60;;
11548;SDS011;61444;59.472;18.306;2022-08-21T08:09:33;7.87;;;3.20;;
11548;SDS011;61444;59.472;18.306;2022-08-21T08:11:43;8.53;;;3.33;;
11548;SDS011;61444;59.472;18.306;2022-08-21T08:13:52;6.53;;;3.10;;
11548;SDS011;61444;59.472;18.306;2022-08-21T08:16:03;7.70;;;3.00;;
11548;SDS011;61444;59.472;18.306;2022-08-21T08:18:12;9.83;;;3.40;;
11548;SDS011;61444;59.472;18.306;2022-08-21T08:20:20;5.83;;;3.00;;
11548;SDS011;61444;59.472;18.306;2022-08-21T08:22:29;6.93;;;2.83;;
11548;SDS011;61444;59.472;18.306;2022-08-21T08:24:38;11.93;;;3.33;;
11548;SDS011;61444;59.472;18.306;2022-08-21T08:26:48;8.43;;;3.40;;
11548;SDS011;61444;59.472;18.306;2022-08-21T08:28:59;8.00;;;3.17;;
11548;SDS011;61444;59.472;18.306;2022-08-21T08:31:07;7.90;;;3.10;;
11548;SDS011;61444;59.472;18.306;2022-08-21T08:33:16;9.10;;;2.90;;
11548;SDS011;61444;59.472;18.306;2022-08-21T08:35:26;10.10;;;3.07;;
11548;SDS011;61444;59.472;18.306;2022-08-21T08:37:36;9.93;;;3.33;;
11548;SDS011;61444;59.472;18.306;2022-08-21T08:39:47;9.23;;;3.07;;
11548;SDS011;61444;59.472;18.306;2022-08-21T08:41:59;8.80;;;3.30;;
11548;SDS011;61444;59.472;18.306;2022-08-21T08:44:30;8.17;;;3.47;;
11548;SDS011;61444;59.472;18.306;2022-08-21T08:46:40;9.53;;;3.30;;
11548;SDS011;61444;59.472;18.306;2022-08-21T08:48:51;9.77;;;3.23;;
11548;SDS011;61444;59.472;18.306;2022-08-21T08:51:01;7.17;;;3.17;;
11548;SDS011;61444;59.472;18.306;2022-08-21T08:53:12;9.33;;;2.63;;
11548;SDS011;61444;59.472;18.306;2022-08-21T08:55:23;6.73;;;2.77;;
11548;SDS011;61444;59.472;18.306;2022-08-21T08:57:36;8.57;;;2.93;;
11548;SDS011;61444;59.472;18.306;2022-08-21T08:59:46;8.40;;;3.37;;
11548;SDS011;61444;59.472;18.306;2022-08-21T09:01:58;7.80;;;2.90;;
11548;SDS011;61444;59.472;18.306;2022-08-21T09:04:07;5.47;;;2.83;;
11548;SDS011;61444;59.472;18.306;2022-08-21T09:06:21;9.33;;;2.90;;
11548;SDS011;61444;59.472;18.306;2022-08-21T09:08:41;7.67;;;3.40;;
11548;SDS011;61444;59.472;18.306;2022-08-21T09:10:57;6.80;;;2.90;;
11548;SDS011;61444;59.472;18.306;2022-08-21T09:13:10;5.13;;;2.67;;
11548;SDS011;61444;59.472;18.306;2022-08-21T09:15:23;7.57;;;2.70;;
11548;SDS011;61444;59.472;18.306;2022-08-21T09:17:36;8.03;;;3.30;;
11548;SDS011;61444;59.472;18.306;2022-08-21T09:19:49;6.57;;;3.00;;
11548;SDS011;61444;59.472;18.306;2022-08-21T09:22:00;8.07;;;2.63;;
11548;SDS011;61444;59.472;18.306;2022-08-21T09:24:18;7.23;;;2.77;;
11548;SDS011;61444;59.472;18.306;2022-08-21T09:26:43;6.33;;;3.00;;
11548;SDS011;61444;59.472;18.306;2022-08-21T09:28:58;10.77;;;3.17;;
11548;SDS011;61444;59.472;18.306;2022-08-21T09:31:08;9.77;;;3.10;;
11548;SDS011;61444;59.472;18.306;2022-08-21T09:33:20;7.60;;;2.93;;
11548;SDS011;61444;59.472;18.306;2022-08-21T09:35:28;8.57;;;3.13;;
11548;SDS011;61444;59.472;18.306;2022-08-21T09:37:48;6.93;;;3.17;;
11548;SDS011;61444;59.472;18.306;2022-08-21T09:39:58;10.53;;;3.23;;
11548;SDS011;61444;59.472;18.306;2022-08-21T09:42:07;7.40;;;3.10;;
11548;SDS011;61444;59.472;18.306;2022-08-21T09:44:23;8.90;;;3.43;;
11548;SDS011;61444;59.472;18.306;2022-08-21T09:46:32;7.67;;;3.07;;
11548;SDS011;61444;59.472;18.306;2022-08-21T09:48:43;8.23;;;3.23;;
11548;SDS011;61444;59.472;18.306;2022-08-21T09:50:52;7.07;;;3.00;;
11548;SDS011;61444;59.472;18.306;2022-08-21T09:53:01;10.50;;;3.00;;
11548;SDS011;61444;59.472;18.306;2022-08-21T09:55:14;7.23;;;3.03;;
11548;SDS011;61444;59.472;18.306;2022-08-21T09:57:47;7.97;;;3.00;;
11548;SDS011;61444;59.472;18.306;2022-08-21T10:00:06;7.20;;;3.17;;
11548;SDS011;61444;59.472;18.306;2022-08-21T10:02:21;5.73;;;3.00;;
11548;SDS011;61444;59.472;18.306;2022-08-21T10:04:31;5.27;;;2.77;;
11548;SDS011;61444;59.472;18.306;2022-08-21T10:06:40;8.27;;;2.70;;
11548;SDS011;61444;59.472;18.306;2022-08-21T10:08:49;5.83;;;2.67;;
11548;SDS011;61444;59.472;18.306;2022-08-21T10:11:01;6.60;;;2.93;;
11548;SDS011;61444;59.472;18.306;2022-08-21T10:13:11;4.83;;;2.63;;
11548;SDS011;61444;59.472;18.306;2022-08-21T10:15:24;7.70;;;2.93;;
11548;SDS011;61444;59.472;18.306;2022-08-21T10:17:37;5.23;;;2.90;;
11548;SDS011;61444;59.472;18.306;2022-08-21T10:19:53;7.97;;;2.80;;
11548;SDS011;61444;59.472;18.306;2022-08-21T10:22:08;6.60;;;2.90;;
11548;SDS011;61444;59.472;18.306;2022-08-21T10:24:23;5.13;;;3.03;;
11548;SDS011;61444;59.472;18.306;2022-08-21T10:26:40;6.70;;;2.83;;
11548;SDS011;61444;59.472;18.306;2022-08-21T10:28:52;7.67;;;3.17;;
11548;SDS011;61444;59.472;18.306;2022-08-21T10:31:07;7.43;;;2.93;;
11548;SDS011;61444;59.472;18.306;2022-08-21T10:33:22;5.33;;;2.47;;
11548;SDS011;61444;59.472;18.306;2022-08-21T10:35:33;6.17;;;2.47;;
11548;SDS011;61444;59.472;18.306;2022-08-21T10:37:47;7.57;;;2.63;;
11548;SDS011;61444;59.472;18.306;2022-08-21T10:40:01;5.27;;;2.37;;
11548;SDS011;61444;59.472;18.306;2022-08-21T10:42:16;5.33;;;2.53;;
11548;SDS011;61444;59.472;18.306;2022-08-21T10:44:34;5.47;;;2.50;;
11548;SDS011;61444;59.472;18.306;2022-08-21T10:46:47;7.33;;;2.20;;
11548;SDS011;61444;59.472;18.306;2022-08-21T10:48:59;5.10;;;2.10;;
11548;SDS011;61444;59.472;18.306;2022-08-21T10:51:15;4.70;;;2.07;;
11548;SDS011;61444;59.472;18.306;2022-08-21T10:53:41;2.97;;;2.00;;
11548;SDS011;61444;59.472;18.306;2022-08-21T10:55:55;3.07;;;1.93;;
11548;SDS011;61444;59.472;18.306;2022-08-21T10:58:05;5.77;;;2.40;;
11548;SDS011;61444;59.472;18.306;2022-08-21T11:00:17;5.07;;;2.00;;
11548;SDS011;61444;59.472;18.306;2022-08-21T11:02:30;5.37;;;2.30;;
11548;SDS011;61444;59.472;18.306;2022-08-21T11:04:48;3.43;;;2.10;;
11548;SDS011;61444;59.472;18.306;2022-08-21T11:06:59;5.80;;;2.17;;
11548;SDS011;61444;59.472;18.306;2022-08-21T11:09:19;3.57;;;2.20;;
11548;SDS011;61444;59.472;18.306;2022-08-21T11:11:29;2.87;;;2.23;;
11548;SDS011;61444;59.472;18.306;2022-08-21T11:13:42;2.30;;;1.87;;
11548;SDS011;61444;59.472;18.306;2022-08-21T11:15:53;6.03;;;2.23;;
11548;SDS011;61444;59.472;18.306;2022-08-21T11:18:13;4.23;;;2.33;;
11548;SDS011;61444;59.472;18.306;2022-08-21T11:20:28;5.10;;;2.40;;
11548;SDS011;61444;59.472;18.306;2022-08-21T11:22:40;7.20;;;2.13;;
11548;SDS011;61444;59.472;18.306;2022-08-21T11:24:50;2.97;;;2.10;;
11548;SDS011;61444;59.472;18.306;2022-08-21T11:27:03;3.57;;;2.27;;
11548;SDS011;61444;59.472;18.306;2022-08-21T11:29:13;3.27;;;2.20;;
11548;SDS011;61444;59.472;18.306;2022-08-21T11:31:27;3.83;;;2.40;;
11548;SDS011;61444;59.472;18.306;2022-08-21T11:33:43;4.93;;;2.60;;
11548;SDS011;61444;59.472;18.306;2022-08-21T11:35:55;7.77;;;2.63;;
11548;SDS011;61444;59.472;18.306;2022-08-21T11:38:18;4.47;;;2.80;;
11548;SDS011;61444;59.472;18.306;2022-08-21T11:40:42;4.03;;;2.20;;
11548;SDS011;61444;59.472;18.306;2022-08-21T11:42:55;3.80;;;2.13;;
11548;SDS011;61444;59.472;18.306;2022-08-21T11:45:14;3.57;;;1.93;;
11548;SDS011;61444;59.472;18.306;2022-08-21T11:47:29;4.93;;;2.40;;
11548;SDS011;61444;59.472;18.306;2022-08-21T11:49:49;4.00;;;2.13;;
11548;SDS011;61444;59.472;18.306;2022-08-21T11:52:03;4.70;;;2.53;;
11548;SDS011;61444;59.472;18.306;2022-08-21T11:54:18;3.60;;;2.17;;
11548;SDS011;61444;59.472;18.306;2022-08-21T11:56:29;2.60;;;1.90;;
11548;SDS011;61444;59.472;18.306;2022-08-21T11:58:41;4.30;;;2.43;;
11548;SDS011;61444;59.472;18.306;2022-08-21T12:00:51;5.33;;;3.13;;
11548;SDS011;61444;59.472;18.306;2022-08-21T12:03:06;5.60;;;2.43;;
11548;SDS011;61444;59.472;18.306;2022-08-21T12:05:24;3.07;;;2.67;;
11548;SDS011;61444;59.472;18.306;2022-08-21T12:07:34;4.70;;;2.20;;
11548;SDS011;61444;59.472;18.306;2022-08-21T12:09:51;3.20;;;1.97;;
11548;SDS011;61444;59.472;18.306;2022-08-21T12:12:03;2.67;;;1.63;;
11548;SDS011;61444;59.472;18.306;2022-08-21T12:14:13;3.83;;;1.93;;
11548;SDS011;61444;59.472;18.306;2022-08-21T12:16:28;2.80;;;1.70;;
11548;SDS011;61444;59.472;18.306;2022-08-21T12:18:37;2.47;;;1.50;;
11548;SDS011;61444;59.472;18.306;2022-08-21T12:20:58;3.57;;;1.67;;
11548;SDS011;61444;59.472;18.306;2022-08-21T12:23:18;3.13;;;2.00;;
11548;SDS011;61444;59.472;18.306;2022-08-21T12:25:26;3.17;;;1.97;;
11548;SDS011;61444;59.472;18.306;2022-08-21T12:27:47;4.13;;;1.70;;
11548;SDS011;61444;59.472;18.306;2022-08-21T12:29:58;5.27;;;2.07;;
11548;SDS011;61444;59.472;18.306;2022-08-21T12:32:19;4.07;;;1.60;;
11548;SDS011;61444;59.472;18.306;2022-08-21T12:34:31;2.83;;;2.10;;
11548;SDS011;61444;59.472;18.306;2022-08-21T12:36:43;5.03;;;2.27;;
11548;SDS011;61444;59.472;18.306;2022-08-21T12:38:56;3.60;;;2.20;;
11548;SDS011;61444;59.472;18.306;2022-08-21T12:41:06;3.63;;;1.77;;
11548;SDS011;61444;59.472;18.306;2022-08-21T12:43:20;3.97;;;1.90;;
11548;SDS011;61444;59.472;18.306;2022-08-21T12:45:31;2.63;;;1.80;;
11548;SDS011;61444;59.472;18.306;2022-08-21T12:47:43;3.97;;;2.23;;
11548;SDS011;61444;59.472;18.306;2022-08-21T12:49:54;4.37;;;1.90;;
11548;SDS011;61444;59.472;18.306;2022-08-21T12:52:08;4.93;;;2.37;;
11548;SDS011;61444;59.472;18.306;2022-08-21T12:54:27;4.40;;;1.80;;
11548;SDS011;61444;59.472;18.306;2022-08-21T12:56:36;2.37;;;1.90;;
11548;SDS011;61444;59.472;18.306;2022-08-21T12:58:47;4.13;;;1.70;;